Vera D — CQID — position and weather

sailwx.info

Track history (hours):
 
Tides and Currents Weather Stations Pressure Air Temp Water Temp Dewpoint Dewpoint Depression Visibility Wind Speed Wind Dir Waves Ship Positions

Vera D

Last reported at 2018-Jan-25 19:28 UTC. Time now 2018-Feb-23 16:05 UTC.
Position N 07°04' W 014°45'.
Warning: this ship's position is 28 days out of date.

Length 178 m; draft 11 m.

Type: Ship. MMSI: 255805553.

Date/timePositionNaut miles runAvg speedWind from/ knotsBaromVisibWave heightAir tempDewpointWater temp
2018-Jan-25 19:28N 07°04' W 014°45'612.3
2018-Jan-25 19:00N 07°09' W 014°49'612.6
2018-Jan-25 18:31N 07°13' W 014°53'612.4
2018-Jan-25 18:00N 07°18' W 014°57'612.3
2018-Jan-25 17:30N 07°23' W 015°01'612.1
2018-Jan-25 17:00N 07°28' W 015°05'612.2
2018-Jan-25 16:30N 07°32' W 015°09'612.4
2018-Jan-25 16:00N 07°37' W 015°13'612.5
2018-Jan-25 15:30N 07°42' W 015°17'612.4
2018-Jan-25 15:00N 07°46' W 015°21'612.2
2018-Jan-25 14:30N 07°51' W 015°25'612.1
2018-Jan-25 13:57N 07°56' W 015°29'512.0
2018-Jan-25 13:31N 08°00' W 015°32'611.9
2018-Jan-25 13:00N 08°05' W 015°36'611.9
2018-Jan-25 12:28N 08°10' W 015°40'612.1
2018-Jan-25 12:00N 08°14' W 015°44'612.0
2018-Jan-25 11:30N 08°19' W 015°48'612.2
2018-Jan-25 11:00N 08°23' W 015°52'612.3
2018-Jan-25 10:31N 08°28' W 015°56'612.5
2018-Jan-25 10:00N 08°33' W 016°00'612.2
2018-Jan-25 09:30N 08°37' W 016°04'612.3
2018-Jan-25 09:00N 08°42' W 016°08'1912.4
2018-Jan-25 07:26N 08°57' W 016°21'512.5
2018-Jan-25 07:00N 09°01' W 016°24'612.5
2018-Jan-25 06:30N 09°06' W 016°28'712.3
2018-Jan-25 05:58N 09°11' W 016°33'712.6
2018-Jan-25 05:25N 09°16' W 016°37'512.7
2018-Jan-25 05:00N 09°20' W 016°41'812.6
2018-Jan-25 04:25N 09°26' W 016°46'912.4
2018-Jan-25 03:43N 09°33' W 016°51'1912.0
2018-Jan-25 02:05N 09°47' W 017°04'112.1
2018-Jan-25 01:59N 09°48' W 017°05'13611.7
2018-Jan-24 14:24N 11°49' W 018°09'512.6
2018-Jan-24 14:00N 11°54' W 018°10'  
2018-Jan-21 05:01N 27°20' W 014°12'011.9
2018-Jan-21 05:00N 27°20' W 014°12'1212.4
2018-Jan-21 04:02N 27°29' W 014°04'012.4
2018-Jan-21 04:00N 27°30' W 014°03'612.2
2018-Jan-21 03:30N 27°34' W 013°59'612.0
2018-Jan-21 03:00N 27°39' W 013°55'612.3
2018-Jan-21 02:30N 27°44' W 013°51'712.4
2018-Jan-21 01:58N 27°50' W 013°47'612.3
2018-Jan-21 01:30N 27°54' W 013°43'612.5
2018-Jan-21 01:00N 27°59' W 013°38'612.3
2018-Jan-21 00:30N 28°04' W 013°35'612.1
2018-Jan-21 00:00N 28°10' W 013°31'612.0
2018-Jan-20 23:30N 28°15' W 013°29'612.1
2018-Jan-20 22:58N 28°21' W 013°27'712.3
2018-Jan-20 22:25N 28°28' W 013°25'612.3
2018-Jan-20 21:57N 28°33' W 013°23'512.2
2018-Jan-20 21:30N 28°39' W 013°21'58714.4
2018-Jan-19 04:42N 37°56' W 009°42'317.3
2018-Jan-19 04:30N 37°59' W 009°41'917.2
2018-Jan-19 04:00N 38°07' W 009°36'917.6
2018-Jan-19 03:30N 38°15' W 009°33'917.6
2018-Jan-19 03:00N 38°24' W 009°30'917.2
2018-Jan-19 02:30N 38°32' W 009°27'713.3
2018-Jan-19 02:00N 38°39' W 009°25'3 6.9
2018-Jan-19 01:30N 38°38' W 009°21'612.6
2018-Jan-19 01:00N 38°41' W 009°14'511.0
2018-Jan-19 00:31N 38°42' W 009°07'0 0.1
2018-Jan-18 23:59N 38°42' W 009°07'0 0.0
2018-Jan-18 23:29N 38°42' W 009°07'0 0.1
2018-Jan-18 22:59N 38°42' W 009°07'0 0.1
2018-Jan-18 22:28N 38°42' W 009°07'0 0.0
2018-Jan-18 21:58N 38°42' W 009°07'0 0.0
2018-Jan-18 21:28N 38°42' W 009°07'0 0.0
2018-Jan-18 20:52N 38°42' W 009°07'0 0.0
2018-Jan-18 20:30N 38°42' W 009°07'0 0.0
2018-Jan-18 20:00N 38°42' W 009°07'0 0.0
2018-Jan-18 19:30N 38°42' W 009°07'0 0.0
2018-Jan-18 19:00N 38°42' W 009°07'0 0.0
2018-Jan-18 18:30N 38°42' W 009°07'0 0.0
2018-Jan-18 17:56N 38°42' W 009°07'0 0.2
2018-Jan-18 17:29N 38°42' W 009°07'0 0.1
2018-Jan-18 16:59N 38°42' W 009°07'0 0.1
2018-Jan-18 16:26N 38°42' W 009°07'0 0.0
2018-Jan-18 15:58N 38°42' W 009°07'0 0.0
2018-Jan-18 15:28N 38°42' W 009°07'0 0.0
2018-Jan-18 14:58N 38°42' W 009°07'0 0.0
2018-Jan-18 14:28N 38°42' W 009°07'0 0.0
2018-Jan-18 13:55N 38°42' W 009°07'0 0.0
2018-Jan-18 13:27N 38°42' W 009°07'0 0.2
2018-Jan-18 13:00N 38°42' W 009°07'1 2.1
2018-Jan-18 12:30N 38°43' W 009°06'0 0.5
2018-Jan-18 12:00N 38°44' W 009°06'0 0.0
2018-Jan-18 11:30N 38°44' W 009°06'0 0.0
2018-Jan-18 08:41N 38°44' W 009°06'0 0.0
2018-Jan-18 08:28N 38°44' W 009°06'0 0.0
2018-Jan-18 07:55N 38°44' W 009°06'0 0.0
2018-Jan-18 07:28N 38°44' W 009°06'0 0.0
2018-Jan-18 06:58N 38°44' W 009°06'0 0.0
2018-Jan-18 06:25N 38°44' W 009°06'0 0.0
2018-Jan-18 05:57N 38°44' W 009°06'0 0.0
2018-Jan-18 05:27N 38°44' W 009°06'0 0.0
2018-Jan-18 05:00N 38°44' W 009°06'0 0.0
2018-Jan-18 04:03N 38°44' W 009°06'0 0.0
2018-Jan-18 03:59N 38°44' W 009°06'0 0.0
2018-Jan-18 03:29N 38°44' W 009°06'0 0.0
2018-Jan-18 02:50N 38°44' W 009°06'0 0.0
2018-Jan-18 02:14N 38°44' W 009°06'0 0.0
2018-Jan-18 01:56N 38°44' W 009°06'0 0.0
2018-Jan-18 01:25N 38°44' W 009°06'0 0.0
2018-Jan-18 00:55N 38°44' W 009°06'  
Track history (hours):
 
Tides and Currents Weather Stations Pressure Air Temp Water Temp Dewpoint Dewpoint Depression Visibility Wind Speed Wind Dir Waves Ship Positions

Vera D

Last reported at 2018-Jan-25 19:28 UTC. Time now 2018-Feb-23 16:05 UTC.
Position N 07°04' W 014°45'.
Warning: this ship's position is 28 days out of date.

Length 178 m; draft 11 m.

Type: Ship. MMSI: 255805553.

Date/timePositionNaut miles runAvg speedWind from/ knotsBaromVisibWave heightAir tempDewpointWater temp
2018-Jan-25 19:28N 07°04' W 014°45'612.3
2018-Jan-25 19:00N 07°09' W 014°49'612.6
2018-Jan-25 18:31N 07°13' W 014°53'612.4
2018-Jan-25 18:00N 07°18' W 014°57'612.3
2018-Jan-25 17:30N 07°23' W 015°01'612.1
2018-Jan-25 17:00N 07°28' W 015°05'612.2
2018-Jan-25 16:30N 07°32' W 015°09'612.4
2018-Jan-25 16:00N 07°37' W 015°13'612.5
2018-Jan-25 15:30N 07°42' W 015°17'612.4
2018-Jan-25 15:00N 07°46' W 015°21'612.2
2018-Jan-25 14:30N 07°51' W 015°25'612.1
2018-Jan-25 13:57N 07°56' W 015°29'512.0
2018-Jan-25 13:31N 08°00' W 015°32'611.9
2018-Jan-25 13:00N 08°05' W 015°36'611.9
2018-Jan-25 12:28N 08°10' W 015°40'612.1
2018-Jan-25 12:00N 08°14' W 015°44'612.0
2018-Jan-25 11:30N 08°19' W 015°48'612.2
2018-Jan-25 11:00N 08°23' W 015°52'612.3
2018-Jan-25 10:31N 08°28' W 015°56'612.5
2018-Jan-25 10:00N 08°33' W 016°00'612.2
2018-Jan-25 09:30N 08°37' W 016°04'612.3
2018-Jan-25 09:00N 08°42' W 016°08'1912.4
2018-Jan-25 07:26N 08°57' W 016°21'512.5
2018-Jan-25 07:00N 09°01' W 016°24'612.5
2018-Jan-25 06:30N 09°06' W 016°28'712.3
2018-Jan-25 05:58N 09°11' W 016°33'712.6
2018-Jan-25 05:25N 09°16' W 016°37'512.7
2018-Jan-25 05:00N 09°20' W 016°41'812.6
2018-Jan-25 04:25N 09°26' W 016°46'912.4
2018-Jan-25 03:43N 09°33' W 016°51'1912.0
2018-Jan-25 02:05N 09°47' W 017°04'112.1
2018-Jan-25 01:59N 09°48' W 017°05'13611.7
2018-Jan-24 14:24N 11°49' W 018°09'512.6
2018-Jan-24 14:00N 11°54' W 018°10'  
2018-Jan-21 05:01N 27°20' W 014°12'011.9
2018-Jan-21 05:00N 27°20' W 014°12'1212.4
2018-Jan-21 04:02N 27°29' W 014°04'012.4
2018-Jan-21 04:00N 27°30' W 014°03'612.2
2018-Jan-21 03:30N 27°34' W 013°59'612.0
2018-Jan-21 03:00N 27°39' W 013°55'612.3
2018-Jan-21 02:30N 27°44' W 013°51'712.4
2018-Jan-21 01:58N 27°50' W 013°47'612.3
2018-Jan-21 01:30N 27°54' W 013°43'612.5
2018-Jan-21 01:00N 27°59' W 013°38'612.3
2018-Jan-21 00:30N 28°04' W 013°35'612.1
2018-Jan-21 00:00N 28°10' W 013°31'612.0
2018-Jan-20 23:30N 28°15' W 013°29'612.1
2018-Jan-20 22:58N 28°21' W 013°27'712.3
2018-Jan-20 22:25N 28°28' W 013°25'612.3
2018-Jan-20 21:57N 28°33' W 013°23'512.2
2018-Jan-20 21:30N 28°39' W 013°21'58714.4
2018-Jan-19 04:42N 37°56' W 009°42'317.3
2018-Jan-19 04:30N 37°59' W 009°41'917.2
2018-Jan-19 04:00N 38°07' W 009°36'917.6
2018-Jan-19 03:30N 38°15' W 009°33'917.6
2018-Jan-19 03:00N 38°24' W 009°30'917.2
2018-Jan-19 02:30N 38°32' W 009°27'713.3
2018-Jan-19 02:00N 38°39' W 009°25'3 6.9
2018-Jan-19 01:30N 38°38' W 009°21'612.6
2018-Jan-19 01:00N 38°41' W 009°14'511.0
2018-Jan-19 00:31N 38°42' W 009°07'0 0.1
2018-Jan-18 23:59N 38°42' W 009°07'0 0.0
2018-Jan-18 23:29N 38°42' W 009°07'0 0.1
2018-Jan-18 22:59N 38°42' W 009°07'0 0.1
2018-Jan-18 22:28N 38°42' W 009°07'0 0.0
2018-Jan-18 21:58N 38°42' W 009°07'0 0.0
2018-Jan-18 21:28N 38°42' W 009°07'0 0.0
2018-Jan-18 20:52N 38°42' W 009°07'0 0.0
2018-Jan-18 20:30N 38°42' W 009°07'0 0.0
2018-Jan-18 20:00N 38°42' W 009°07'0 0.0
2018-Jan-18 19:30N 38°42' W 009°07'0 0.0
2018-Jan-18 19:00N 38°42' W 009°07'0 0.0
2018-Jan-18 18:30N 38°42' W 009°07'0 0.0
2018-Jan-18 17:56N 38°42' W 009°07'0 0.2
2018-Jan-18 17:29N 38°42' W 009°07'0 0.1
2018-Jan-18 16:59N 38°42' W 009°07'0 0.1
2018-Jan-18 16:26N 38°42' W 009°07'0 0.0
2018-Jan-18 15:58N 38°42' W 009°07'0 0.0
2018-Jan-18 15:28N 38°42' W 009°07'0 0.0
2018-Jan-18 14:58N 38°42' W 009°07'0 0.0
2018-Jan-18 14:28N 38°42' W 009°07'0 0.0
2018-Jan-18 13:55N 38°42' W 009°07'0 0.0
2018-Jan-18 13:27N 38°42' W 009°07'0 0.2
2018-Jan-18 13:00N 38°42' W 009°07'1 2.1
2018-Jan-18 12:30N 38°43' W 009°06'0 0.5
2018-Jan-18 12:00N 38°44' W 009°06'0 0.0
2018-Jan-18 11:30N 38°44' W 009°06'0 0.0
2018-Jan-18 08:41N 38°44' W 009°06'0 0.0
2018-Jan-18 08:28N 38°44' W 009°06'0 0.0
2018-Jan-18 07:55N 38°44' W 009°06'0 0.0
2018-Jan-18 07:28N 38°44' W 009°06'0 0.0
2018-Jan-18 06:58N 38°44' W 009°06'0 0.0
2018-Jan-18 06:25N 38°44' W 009°06'0 0.0
2018-Jan-18 05:57N 38°44' W 009°06'0 0.0
2018-Jan-18 05:27N 38°44' W 009°06'0 0.0
2018-Jan-18 05:00N 38°44' W 009°06'0 0.0
2018-Jan-18 04:03N 38°44' W 009°06'0 0.0
2018-Jan-18 03:59N 38°44' W 009°06'0 0.0
2018-Jan-18 03:29N 38°44' W 009°06'0 0.0
2018-Jan-18 02:50N 38°44' W 009°06'0 0.0
2018-Jan-18 02:14N 38°44' W 009°06'0 0.0
2018-Jan-18 01:56N 38°44' W 009°06'0 0.0
2018-Jan-18 01:25N 38°44' W 009°06'0 0.0
2018-Jan-18 00:55N 38°44' W 009°06'  

Dump ship's entire track history